createdAt,value
2022-10-17T00:00:48.968Z,32.03
2022-10-17T00:03:16.249Z,32.40
2022-10-17T00:05:45.840Z,32.17
2022-10-17T00:08:15.648Z,33.75
2022-10-17T00:10:43.054Z,31.52
2022-10-17T00:13:10.117Z,32.00
2022-10-17T00:15:36.959Z,31.83
2022-10-17T00:18:04.037Z,30.88
2022-10-17T00:20:30.822Z,31.98
2022-10-17T00:22:57.649Z,33.97
2022-10-17T00:25:24.429Z,32.13
2022-10-17T00:27:51.360Z,31.63
2022-10-17T00:30:18.330Z,29.73
2022-10-17T00:32:45.750Z,34.67
2022-10-17T00:35:12.892Z,33.00
2022-10-17T00:37:39.682Z,31.33
2022-10-17T00:40:07.879Z,30.73
2022-10-17T00:42:34.841Z,31.15
2022-10-17T00:45:22.912Z,35.10
2022-10-17T00:48:07.192Z,31.17
2022-10-17T00:50:39.006Z,31.88
2022-10-17T00:53:09.283Z,30.33
2022-10-17T00:55:42.653Z,31.10
2022-10-17T00:58:09.616Z,32.67
2022-10-17T01:00:36.392Z,31.98
2022-10-17T01:03:05.100Z,32.60
2022-10-17T01:05:33.426Z,33.97
2022-10-17T01:08:01.557Z,31.10
2022-10-17T01:10:35.414Z,31.80
2022-10-17T01:13:43.009Z,33.60
2022-10-17T01:16:16.546Z,31.73
2022-10-17T01:19:02.884Z,33.57
2022-10-17T01:21:55.497Z,32.95
2022-10-17T01:24:40.487Z,30.27
2022-10-17T01:27:20.037Z,29.92
2022-10-17T01:29:57.844Z,34.78
2022-10-17T01:32:35.417Z,31.03
2022-10-17T01:35:24.278Z,33.63
2022-10-17T01:38:03.135Z,32.35
2022-10-17T01:40:37.098Z,33.53
2022-10-17T01:43:13.166Z,30.10
2022-10-17T01:45:52.907Z,31.30
2022-10-17T01:48:25.360Z,33.00
2022-10-17T01:50:58.176Z,35.05
2022-10-17T01:53:39.640Z,32.05
2022-10-17T01:56:10.025Z,32.78
2022-10-17T01:58:43.867Z,34.17
2022-10-17T02:01:13.319Z,36.08
2022-10-17T02:03:43.967Z,35.70
2022-10-17T02:06:10.994Z,33.35
2022-10-17T02:08:50.211Z,31.50
2022-10-17T02:11:19.963Z,32.97
2022-10-17T02:13:58.845Z,30.50
2022-10-17T02:17:03.262Z,31.50
2022-10-17T02:19:56.430Z,32.35
2022-10-17T02:22:44.111Z,32.65
2022-10-17T02:25:42.382Z,33.17
2022-10-17T02:28:24.069Z,31.73
2022-10-17T02:31:21.431Z,32.22
2022-10-17T02:34:02.931Z,32.33
2022-10-17T02:36:35.492Z,31.95
2022-10-17T02:39:05.390Z,30.40
2022-10-17T02:41:34.250Z,31.02
2022-10-17T02:44:04.229Z,31.67
2022-10-17T02:46:33.304Z,33.55
2022-10-17T02:49:25.377Z,32.47
2022-10-17T02:52:13.742Z,31.50
2022-10-17T02:54:51.434Z,32.28
2022-10-17T02:57:21.341Z,35.67
2022-10-17T02:59:50.347Z,31.98
2022-10-17T03:02:18.181Z,32.28
2022-10-17T03:04:46.995Z,32.97
2022-10-17T03:07:13.997Z,31.20
2022-10-17T03:09:40.952Z,29.92
2022-10-17T03:12:08.104Z,33.97
2022-10-17T03:14:35.636Z,32.72
2022-10-17T03:17:03.874Z,33.90
2022-10-17T03:19:31.049Z,32.42
2022-10-17T03:21:57.916Z,32.17
2022-10-17T03:24:26.117Z,35.17
2022-10-17T03:26:53.428Z,32.35
2022-10-17T03:29:20.377Z,38.60
2022-10-17T03:31:47.875Z,36.05
2022-10-17T03:34:14.988Z,32.28
2022-10-17T03:36:41.804Z,34.38
2022-10-17T03:39:08.778Z,33.97
2022-10-17T03:41:35.562Z,32.33
2022-10-17T03:44:03.194Z,32.92
2022-10-17T03:46:31.106Z,34.67
2022-10-17T03:49:00.076Z,34.40
2022-10-17T03:51:27.110Z,35.38
2022-10-17T03:54:00.905Z,32.10
2022-10-17T03:56:28.080Z,34.10
2022-10-17T03:59:09.728Z,35.40
2022-10-17T04:01:38.599Z,34.75
2022-10-17T04:04:05.618Z,33.58
2022-10-17T04:06:35.798Z,34.43
2022-10-17T04:09:03.901Z,32.80
2022-10-17T04:11:53.909Z,32.35
2022-10-17T04:14:22.016Z,30.73
2022-10-17T04:16:48.909Z,35.42
2022-10-17T04:19:20.483Z,38.37
2022-10-17T04:21:48.142Z,34.15
2022-10-17T04:24:15.541Z,34.13
2022-10-17T04:26:53.095Z,36.65
2022-10-17T04:29:22.353Z,36.25
2022-10-17T04:31:51.763Z,33.83
2022-10-17T04:34:44.550Z,39.38
2022-10-17T04:37:11.515Z,34.65
2022-10-17T04:39:38.332Z,33.78
2022-10-17T04:42:05.353Z,34.63
2022-10-17T04:44:32.464Z,35.60
2022-10-17T04:46:59.735Z,33.97
2022-10-17T04:49:27.570Z,37.50
2022-10-17T04:51:59.316Z,37.85
2022-10-17T04:54:38.011Z,37.67
2022-10-17T04:57:10.209Z,34.60
2022-10-17T04:59:38.955Z,32.15
2022-10-17T05:02:28.693Z,35.95
2022-10-17T05:04:57.055Z,33.63
2022-10-17T05:07:24.335Z,36.80
2022-10-17T05:09:58.698Z,36.20
2022-10-17T05:12:26.561Z,33.90
2022-10-17T05:14:54.182Z,34.90
2022-10-17T05:17:22.259Z,36.10
2022-10-17T05:19:50.126Z,34.13
2022-10-17T05:22:17.132Z,36.37
2022-10-17T05:24:44.025Z,33.55
2022-10-17T05:27:11.384Z,36.67
2022-10-17T05:29:38.318Z,34.83
2022-10-17T05:32:16.611Z,35.65
2022-10-17T05:34:43.780Z,38.20
2022-10-17T05:37:11.530Z,34.58
2022-10-17T05:39:39.600Z,32.40
2022-10-17T05:42:07.692Z,35.42
2022-10-17T05:44:35.352Z,37.33
2022-10-17T05:47:02.721Z,35.97
2022-10-17T05:49:44.739Z,34.03
2022-10-17T05:52:16.302Z,35.80
2022-10-17T05:55:07.020Z,36.80
2022-10-17T05:57:34.000Z,38.75
2022-10-17T06:00:02.383Z,41.00
2022-10-17T06:02:41.142Z,36.75
2022-10-17T06:05:09.504Z,39.55
2022-10-17T06:07:36.835Z,40.38
2022-10-17T06:10:06.189Z,35.20
2022-10-17T06:12:33.405Z,33.97
2022-10-17T06:15:00.325Z,41.15
2022-10-17T06:17:27.212Z,36.08
2022-10-17T06:19:54.133Z,38.75
2022-10-17T06:22:21.403Z,39.63
2022-10-17T06:24:48.254Z,36.13
2022-10-17T06:27:15.456Z,38.33
2022-10-17T06:29:42.340Z,43.03
2022-10-17T06:32:12.765Z,42.15
2022-10-17T06:34:43.916Z,36.92
2022-10-17T06:37:11.079Z,41.97
2022-10-17T06:39:39.904Z,42.60
2022-10-17T06:42:15.781Z,39.72
2022-10-17T06:44:48.834Z,38.35
2022-10-17T06:47:21.452Z,39.90
2022-10-17T06:49:49.613Z,40.93
2022-10-17T06:52:31.809Z,41.05
2022-10-17T06:55:27.597Z,44.67
2022-10-17T06:58:17.236Z,42.22
2022-10-17T07:01:10.297Z,40.15
2022-10-17T07:03:38.218Z,43.30
2022-10-17T07:06:06.199Z,40.50
2022-10-17T07:08:33.447Z,41.67
2022-10-17T07:11:13.909Z,43.20
2022-10-17T07:13:42.337Z,42.47
2022-10-17T07:16:10.103Z,38.67
2022-10-17T07:18:39.744Z,41.15
2022-10-17T07:21:07.835Z,40.00
2022-10-17T07:23:36.880Z,37.00
2022-10-17T07:26:07.751Z,39.60
2022-10-17T07:28:38.805Z,40.40
2022-10-17T07:31:18.342Z,34.13
2022-10-17T07:36:14.535Z,37.22
2022-10-17T07:38:42.019Z,35.53
2022-10-17T07:41:11.376Z,34.13
2022-10-17T07:43:38.409Z,36.20
2022-10-17T07:46:07.576Z,36.25
2022-10-17T07:48:34.967Z,35.22
2022-10-17T07:51:04.073Z,38.88
2022-10-17T07:53:30.915Z,38.73
2022-10-17T07:55:58.297Z,36.15
2022-10-17T07:58:25.194Z,34.08
2022-10-17T08:00:52.024Z,34.47
2022-10-17T08:03:18.891Z,38.20
2022-10-17T08:05:45.647Z,36.67
2022-10-17T08:08:12.399Z,34.22
2022-10-17T08:10:39.240Z,33.33
2022-10-17T08:13:06.056Z,32.03
2022-10-17T08:15:32.870Z,37.53
2022-10-17T08:17:59.830Z,38.10
2022-10-17T08:20:26.785Z,35.78
2022-10-17T08:22:56.567Z,39.85
2022-10-17T08:25:23.606Z,33.90
2022-10-17T08:27:50.613Z,35.42
2022-10-17T08:30:17.604Z,35.47
2022-10-17T08:32:44.348Z,37.50
2022-10-17T08:35:11.070Z,38.38
2022-10-17T08:37:37.906Z,35.88
2022-10-17T08:40:05.094Z,35.15
2022-10-17T08:43:04.352Z,37.73
2022-10-17T08:45:55.170Z,38.78
2022-10-17T08:48:25.538Z,38.60
2022-10-17T08:50:58.209Z,34.00
2022-10-17T08:53:31.930Z,38.92
2022-10-17T08:56:11.878Z,36.27
2022-10-17T08:58:39.006Z,34.25
2022-10-17T09:01:29.133Z,35.25
2022-10-17T09:04:12.138Z,35.58
2022-10-17T09:06:46.503Z,39.38
2022-10-17T09:09:32.572Z,35.23
2022-10-17T09:12:24.673Z,35.92
2022-10-17T09:15:09.774Z,37.85
2022-10-17T09:18:22.670Z,38.78
2022-10-17T09:20:57.902Z,32.85
2022-10-17T09:23:45.397Z,33.83
2022-10-17T09:26:13.105Z,34.00
2022-10-17T09:28:42.255Z,37.67
2022-10-17T09:31:20.535Z,33.83
2022-10-17T09:33:54.180Z,37.20
2022-10-17T09:36:28.397Z,36.10
2022-10-17T09:38:59.130Z,35.85
2022-10-17T09:41:50.512Z,37.58
2022-10-17T09:44:19.790Z,36.65
2022-10-17T09:46:52.595Z,34.97
2022-10-17T09:49:26.102Z,37.70
2022-10-17T09:51:53.065Z,40.72
2022-10-17T09:54:52.299Z,36.03
2022-10-17T09:57:20.812Z,34.67
2022-10-17T09:59:58.122Z,36.70
2022-10-17T10:02:27.204Z,37.13
2022-10-17T10:05:09.027Z,32.92
2022-10-17T10:07:38.849Z,33.78
2022-10-17T10:10:27.615Z,35.67
2022-10-17T10:13:18.517Z,33.22
2022-10-17T10:15:47.289Z,32.80
2022-10-17T10:18:32.819Z,32.00
2022-10-17T10:21:08.534Z,33.78
2022-10-17T10:23:36.760Z,31.98
2022-10-17T10:26:06.303Z,30.88
2022-10-17T10:28:37.133Z,29.50
2022-10-17T10:31:08.089Z,30.77
2022-10-17T10:33:41.760Z,28.38
2022-10-17T10:36:09.069Z,29.33
2022-10-17T10:38:40.429Z,26.58
2022-10-17T10:41:11.839Z,28.00
2022-10-17T10:43:43.641Z,27.42
2022-10-17T10:46:25.576Z,27.25
2022-10-17T10:49:00.881Z,28.42
2022-10-17T10:51:38.009Z,27.52
2022-10-17T10:54:21.800Z,25.20
2022-10-17T10:56:54.748Z,25.25
2022-10-17T10:59:36.231Z,22.58
2022-10-17T11:02:27.656Z,24.13
2022-10-17T11:05:02.098Z,21.30
2022-10-17T11:08:03.817Z,22.07
2022-10-17T11:10:53.475Z,24.73
2022-10-17T11:13:25.368Z,26.77
2022-10-17T11:16:16.489Z,22.13
2022-10-17T11:18:53.711Z,23.67
2022-10-17T11:21:43.763Z,23.13
2022-10-17T11:24:23.940Z,23.95
2022-10-17T11:26:56.908Z,22.65
2022-10-17T11:29:31.530Z,24.17
2022-10-17T11:32:05.752Z,23.95
2022-10-17T11:34:40.012Z,22.87
2022-10-17T11:37:22.215Z,22.20
2022-10-17T11:39:57.830Z,21.05
2022-10-17T11:42:41.499Z,21.15
2022-10-17T11:45:19.621Z,20.75
2022-10-17T11:47:51.946Z,24.10
2022-10-17T11:53:28.902Z,21.90
2022-10-17T11:55:59.146Z,20.35
2022-10-17T11:58:39.865Z,22.60
2022-10-17T12:01:21.563Z,19.63
2022-10-17T12:04:21.949Z,19.73
2022-10-17T12:07:21.976Z,20.00
2022-10-17T12:09:51.772Z,18.00
2022-10-17T12:12:28.346Z,19.50
2022-10-17T12:15:21.295Z,18.50
2022-10-17T12:18:04.334Z,22.10
2022-10-17T12:20:38.699Z,17.30
2022-10-17T12:23:11.626Z,19.40
2022-10-17T12:25:50.053Z,19.02
2022-10-17T12:28:47.283Z,18.87
2022-10-17T12:31:17.197Z,19.05
2022-10-17T12:34:04.854Z,20.33
2022-10-17T12:36:31.715Z,18.75
2022-10-17T12:39:01.555Z,17.35
2022-10-17T12:41:40.609Z,18.80
2022-10-17T12:44:13.499Z,16.48
2022-10-17T12:47:07.505Z,18.77
2022-10-17T12:49:54.451Z,15.90
2022-10-17T12:52:32.173Z,16.55
2022-10-17T12:55:13.021Z,17.57
2022-10-17T12:58:03.925Z,17.13
2022-10-17T13:01:18.852Z,17.50
2022-10-17T13:03:45.214Z,16.50
2022-10-17T13:06:25.104Z,18.27
2022-10-17T13:09:03.515Z,15.60
2022-10-17T13:11:34.263Z,16.40
2022-10-17T13:14:04.005Z,16.23
2022-10-17T13:16:36.572Z,16.33
2022-10-17T13:19:15.914Z,18.25
2022-10-17T13:21:59.744Z,14.60
2022-10-17T13:24:35.598Z,17.15
2022-10-17T13:27:02.930Z,17.02
2022-10-17T13:29:30.836Z,17.10
2022-10-17T13:32:03.494Z,14.52
2022-10-17T13:34:32.228Z,13.87
2022-10-17T13:37:05.112Z,15.48
2022-10-17T13:40:00.340Z,14.77
2022-10-17T13:42:40.573Z,13.65
2022-10-17T13:45:34.881Z,14.50
2022-10-17T13:48:04.746Z,14.80
2022-10-17T13:50:44.163Z,14.43
2022-10-17T13:53:36.872Z,12.15
2022-10-17T13:56:27.743Z,15.48
2022-10-17T13:58:59.149Z,14.18
2022-10-17T14:01:28.751Z,14.13
2022-10-17T14:04:07.741Z,14.63
2022-10-17T14:06:46.178Z,14.10
2022-10-17T14:09:24.848Z,13.40
2022-10-17T14:12:11.447Z,13.00
2022-10-17T14:15:05.269Z,13.67
2022-10-17T14:17:28.993Z,14.63
2022-10-17T14:20:29.669Z,12.60
2022-10-17T14:22:54.553Z,15.77
2022-10-17T14:25:35.501Z,13.80
2022-10-17T14:28:11.400Z,13.27
2022-10-17T14:30:57.765Z,15.15
2022-10-17T14:33:29.867Z,15.30
2022-10-17T14:35:58.766Z,15.05
2022-10-17T14:38:27.782Z,13.48
2022-10-17T14:43:59.539Z,18.92
2022-10-17T14:46:27.347Z,12.23
2022-10-17T14:48:58.939Z,13.38
2022-10-17T14:51:25.870Z,13.30
2022-10-17T14:54:05.762Z,13.93
2022-10-17T14:56:40.366Z,12.32
2022-10-17T14:59:11.788Z,15.63
2022-10-17T15:01:39.336Z,13.90
2022-10-17T15:04:06.158Z,13.05
2022-10-17T15:06:34.497Z,11.67
2022-10-17T15:09:02.070Z,14.70
2022-10-17T15:11:28.928Z,12.32
2022-10-17T15:13:56.295Z,13.20
2022-10-17T15:16:26.576Z,12.88
2022-10-17T15:18:54.397Z,11.53
2022-10-17T15:21:39.255Z,12.18
2022-10-17T15:24:07.677Z,13.25
2022-10-17T15:26:35.638Z,13.25
2022-10-17T15:29:02.889Z,14.02
2022-10-17T15:31:31.107Z,11.43
2022-10-17T15:33:57.986Z,11.55
2022-10-17T15:36:29.115Z,11.85
2022-10-17T15:38:58.946Z,11.32
2022-10-17T15:41:28.893Z,13.57
2022-10-17T15:43:56.309Z,13.17
2022-10-17T15:46:33.311Z,11.13
2022-10-17T15:49:08.171Z,12.90
2022-10-17T15:51:35.042Z,12.13
2022-10-17T15:54:02.110Z,12.50
2022-10-17T15:56:31.854Z,10.40
2022-10-17T15:58:58.809Z,11.13
2022-10-17T16:01:28.633Z,11.85
2022-10-17T16:03:56.910Z,11.35
2022-10-17T16:06:24.941Z,10.90
2022-10-17T16:08:52.587Z,13.67
2022-10-17T16:11:29.453Z,12.75
2022-10-17T16:13:59.432Z,11.85
2022-10-17T16:16:26.747Z,10.80
2022-10-17T16:18:53.604Z,12.00
2022-10-17T16:21:26.820Z,10.50
2022-10-17T16:23:54.106Z,11.50
2022-10-17T16:26:20.970Z,12.27
2022-10-17T16:28:47.894Z,11.93
2022-10-17T16:31:23.488Z,9.02
2022-10-17T16:33:52.565Z,11.93
2022-10-17T16:36:20.154Z,9.80
2022-10-17T16:38:48.024Z,8.93
2022-10-17T16:41:30.075Z,9.55
2022-10-17T16:44:00.013Z,12.13
2022-10-17T16:46:28.713Z,9.73
2022-10-17T16:48:56.645Z,10.00
2022-10-17T16:51:23.484Z,13.23
2022-10-17T16:53:52.015Z,8.05
2022-10-17T16:56:21.146Z,8.43
2022-10-17T16:58:49.208Z,8.37
2022-10-17T17:01:19.294Z,8.88
2022-10-17T17:03:47.770Z,8.57
2022-10-17T17:06:17.278Z,7.60
2022-10-17T17:08:44.649Z,8.48
2022-10-17T17:11:14.158Z,8.90
2022-10-17T17:13:41.453Z,7.07
2022-10-17T17:16:20.860Z,7.95
2022-10-17T17:18:49.363Z,9.82
2022-10-17T17:21:16.759Z,7.55
2022-10-17T17:23:44.308Z,7.27
2022-10-17T17:26:17.801Z,7.90
2022-10-17T17:28:45.942Z,7.20
2022-10-17T17:31:18.888Z,8.77
2022-10-17T17:33:46.901Z,7.85
2022-10-17T17:36:19.212Z,8.90
2022-10-17T17:38:48.178Z,6.38
2022-10-17T17:41:17.572Z,8.73
2022-10-17T17:43:46.494Z,7.28
2022-10-17T17:46:15.249Z,8.95
2022-10-17T17:48:43.914Z,10.07
2022-10-17T17:51:13.290Z,8.27
2022-10-17T17:53:41.254Z,8.60
2022-10-17T17:56:15.405Z,7.97
2022-10-17T17:58:44.659Z,8.93
2022-10-17T18:01:22.845Z,8.53
2022-10-17T18:03:52.310Z,10.75
2022-10-17T18:06:21.630Z,7.45
2022-10-17T18:08:55.646Z,7.47
2022-10-17T18:11:23.703Z,9.13
2022-10-17T18:14:00.489Z,8.53
2022-10-17T18:16:31.190Z,10.25
2022-10-17T18:19:04.088Z,7.70
2022-10-17T18:21:36.404Z,10.27
2022-10-17T18:24:07.714Z,8.98
2022-10-17T18:26:36.914Z,8.73
2022-10-17T18:29:06.218Z,8.27
2022-10-17T18:31:35.228Z,8.35
2022-10-17T18:34:04.225Z,9.35
2022-10-17T18:36:34.141Z,9.02
2022-10-17T18:39:04.554Z,10.13
2022-10-17T18:41:33.954Z,9.02
2022-10-17T18:44:02.214Z,8.52
2022-10-17T18:46:33.112Z,9.70
2022-10-17T18:49:01.378Z,8.15
2022-10-17T18:51:29.117Z,8.70
2022-10-17T18:53:58.210Z,9.23
2022-10-17T18:56:28.509Z,8.88
2022-10-17T18:58:59.862Z,9.52
2022-10-17T19:01:28.865Z,9.68
2022-10-17T19:03:59.175Z,7.70
2022-10-17T19:06:29.943Z,8.90
2022-10-17T19:08:57.102Z,10.50
2022-10-17T19:11:27.136Z,10.50
2022-10-17T19:13:57.048Z,9.30
2022-10-17T19:16:32.657Z,9.23
2022-10-17T19:19:04.113Z,10.63
2022-10-17T19:21:33.943Z,11.27
2022-10-17T19:24:04.257Z,9.77
2022-10-17T19:26:34.616Z,12.20
2022-10-17T19:29:02.764Z,11.17
2022-10-17T19:31:32.966Z,9.55
2022-10-17T19:34:02.820Z,10.02
2022-10-17T19:36:34.790Z,12.80
2022-10-17T19:39:08.470Z,10.20
2022-10-17T19:41:36.452Z,11.50
2022-10-17T19:44:04.812Z,10.55
2022-10-17T19:46:34.119Z,11.35
2022-10-17T19:49:03.031Z,12.23
2022-10-17T19:51:31.074Z,10.90
2022-10-17T19:54:02.674Z,13.37
2022-10-17T19:56:32.953Z,11.93
2022-10-17T19:59:00.781Z,10.63
2022-10-17T20:01:32.733Z,13.45
2022-10-17T20:03:59.960Z,13.02
2022-10-17T20:06:27.324Z,12.80
2022-10-17T20:08:55.139Z,11.80
2022-10-17T20:11:25.373Z,13.52
2022-10-17T20:13:55.055Z,14.63
2022-10-17T20:16:25.176Z,15.15
2022-10-17T20:18:55.249Z,12.80
2022-10-17T20:21:27.621Z,14.05
2022-10-17T20:23:55.359Z,13.20
2022-10-17T20:26:37.093Z,12.85
2022-10-17T20:29:26.360Z,13.60
2022-10-17T20:31:53.125Z,13.47
2022-10-17T20:34:20.016Z,12.43
2022-10-17T20:36:47.402Z,12.75
2022-10-17T20:39:15.810Z,13.80
2022-10-17T20:41:43.100Z,13.85
2022-10-17T20:44:10.893Z,13.17
2022-10-17T20:46:44.732Z,12.75
2022-10-17T20:49:16.812Z,12.65
2022-10-17T20:51:44.091Z,13.80
2022-10-17T20:54:11.000Z,14.13
2022-10-17T20:56:37.737Z,12.60
2022-10-17T20:59:07.965Z,13.38
2022-10-17T21:01:35.969Z,13.68
2022-10-17T21:04:26.833Z,13.80
2022-10-17T21:06:51.716Z,13.77
2022-10-17T21:09:18.604Z,12.90
2022-10-17T21:11:45.684Z,12.50
2022-10-17T21:14:12.718Z,13.88
2022-10-17T21:16:40.286Z,12.05
2022-10-17T21:19:07.077Z,14.02
2022-10-17T21:21:36.775Z,11.73
2022-10-17T21:24:09.566Z,12.07
2022-10-17T21:26:37.358Z,14.85
2022-10-17T21:29:05.741Z,14.02
2022-10-17T21:31:35.178Z,14.02
2022-10-17T21:34:10.123Z,14.33
2022-10-17T21:36:37.135Z,12.60
2022-10-17T21:39:05.336Z,13.52
2022-10-17T21:41:33.777Z,12.77
2022-10-17T21:44:04.168Z,13.50
2022-10-17T21:46:32.902Z,13.40
2022-10-17T21:49:01.066Z,12.50
2022-10-17T21:51:28.103Z,14.25
2022-10-17T21:53:56.570Z,12.50
2022-10-17T21:56:28.713Z,12.45
2022-10-17T21:58:55.630Z,13.07
2022-10-17T22:01:25.245Z,13.73
2022-10-17T22:03:57.830Z,13.73
2022-10-17T22:06:42.762Z,16.67
2022-10-17T22:09:22.490Z,14.13
2022-10-17T22:11:52.274Z,13.57
2022-10-17T22:14:20.504Z,13.05
2022-10-17T22:16:48.620Z,13.10
2022-10-17T22:19:18.676Z,12.70
2022-10-17T22:21:45.704Z,14.60
2022-10-17T22:24:14.762Z,13.17
2022-10-17T22:26:42.513Z,14.43
2022-10-17T22:29:10.785Z,15.80
2022-10-17T22:31:38.527Z,12.80
2022-10-17T22:34:06.699Z,15.82
2022-10-17T22:36:34.506Z,13.23
2022-10-17T22:39:01.473Z,14.15
2022-10-17T22:41:28.517Z,13.73
2022-10-17T22:43:55.378Z,16.10
2022-10-17T22:46:22.182Z,12.77
2022-10-17T22:48:48.933Z,14.40
2022-10-17T22:51:16.028Z,16.55
2022-10-17T22:53:43.009Z,14.00
2022-10-17T22:56:12.724Z,15.52
2022-10-17T22:58:40.015Z,19.50
2022-10-17T23:01:08.832Z,15.20
2022-10-17T23:03:36.246Z,15.00
2022-10-17T23:06:04.077Z,15.05
2022-10-17T23:08:31.054Z,15.68
2022-10-17T23:10:57.970Z,16.13
2022-10-17T23:13:24.867Z,14.57
2022-10-17T23:15:56.149Z,14.82
2022-10-17T23:18:25.006Z,15.90
2022-10-17T23:20:52.187Z,16.52
2022-10-17T23:23:19.740Z,17.48
2022-10-17T23:25:47.198Z,14.33
2022-10-17T23:28:14.140Z,16.08
2022-10-17T23:30:41.516Z,14.25
2022-10-17T23:33:11.978Z,16.38
2022-10-17T23:35:38.861Z,15.25
2022-10-17T23:38:05.710Z,15.33
2022-10-17T23:40:32.589Z,15.20
2022-10-17T23:42:59.401Z,13.90
2022-10-17T23:45:26.332Z,16.00
2022-10-17T23:47:53.173Z,15.65
2022-10-17T23:50:19.929Z,15.23
2022-10-17T23:52:46.758Z,14.52
2022-10-17T23:55:13.531Z,16.27
2022-10-17T23:57:40.322Z,15.35
